sensor_id;sensor_type;location;lat;lon;timestamp;P1;durP1;ratioP1;P2;durP2;ratioP2
19278;SDS011;9773;47.062;15.446;2023-06-04T00:00:46;5.30;;;4.80;;
19278;SDS011;9773;47.062;15.446;2023-06-04T00:03:12;7.37;;;4.87;;
19278;SDS011;9773;47.062;15.446;2023-06-04T00:05:38;5.63;;;4.87;;
19278;SDS011;9773;47.062;15.446;2023-06-04T00:08:04;6.23;;;4.70;;
19278;SDS011;9773;47.062;15.446;2023-06-04T00:10:29;5.30;;;4.90;;
19278;SDS011;9773;47.062;15.446;2023-06-04T00:12:56;6.03;;;5.10;;
19278;SDS011;9773;47.062;15.446;2023-06-04T00:15:22;5.77;;;4.87;;
19278;SDS011;9773;47.062;15.446;2023-06-04T00:17:47;6.27;;;5.00;;
19278;SDS011;9773;47.062;15.446;2023-06-04T00:20:13;5.77;;;5.20;;
19278;SDS011;9773;47.062;15.446;2023-06-04T00:22:39;5.60;;;4.77;;
19278;SDS011;9773;47.062;15.446;2023-06-04T00:25:07;5.67;;;4.70;;
19278;SDS011;9773;47.062;15.446;2023-06-04T00:27:34;5.10;;;4.70;;
19278;SDS011;9773;47.062;15.446;2023-06-04T00:30:00;6.87;;;4.90;;
19278;SDS011;9773;47.062;15.446;2023-06-04T00:32:26;7.83;;;4.80;;
19278;SDS011;9773;47.062;15.446;2023-06-04T00:34:54;5.50;;;5.00;;
19278;SDS011;9773;47.062;15.446;2023-06-04T00:37:22;4.97;;;4.27;;
19278;SDS011;9773;47.062;15.446;2023-06-04T00:39:49;5.33;;;4.90;;
19278;SDS011;9773;47.062;15.446;2023-06-04T00:42:15;5.47;;;4.90;;
19278;SDS011;9773;47.062;15.446;2023-06-04T00:44:41;6.07;;;4.70;;
19278;SDS011;9773;47.062;15.446;2023-06-04T00:47:12;5.50;;;5.00;;
19278;SDS011;9773;47.062;15.446;2023-06-04T00:49:39;4.93;;;4.53;;
19278;SDS011;9773;47.062;15.446;2023-06-04T00:52:06;5.40;;;4.90;;
19278;SDS011;9773;47.062;15.446;2023-06-04T00:54:34;5.30;;;4.80;;
19278;SDS011;9773;47.062;15.446;2023-06-04T00:57:01;7.20;;;4.90;;
19278;SDS011;9773;47.062;15.446;2023-06-04T00:59:27;5.93;;;4.77;;
19278;SDS011;9773;47.062;15.446;2023-06-04T01:02:06;5.10;;;4.67;;
19278;SDS011;9773;47.062;15.446;2023-06-04T01:04:48;5.63;;;5.10;;
19278;SDS011;9773;47.062;15.446;2023-06-04T01:07:35;4.93;;;4.47;;
19278;SDS011;9773;47.062;15.446;2023-06-04T01:10:01;5.40;;;4.90;;
19278;SDS011;9773;47.062;15.446;2023-06-04T01:12:28;4.93;;;4.57;;
19278;SDS011;9773;47.062;15.446;2023-06-04T01:14:53;5.37;;;4.77;;
19278;SDS011;9773;47.062;15.446;2023-06-04T01:17:21;6.57;;;4.90;;
19278;SDS011;9773;47.062;15.446;2023-06-04T01:22:39;5.47;;;4.97;;
19278;SDS011;9773;47.062;15.446;2023-06-04T01:28:06;5.93;;;4.77;;
19278;SDS011;9773;47.062;15.446;2023-06-04T01:30:34;5.57;;;4.93;;
19278;SDS011;9773;47.062;15.446;2023-06-04T01:33:02;5.67;;;5.10;;
19278;SDS011;9773;47.062;15.446;2023-06-04T01:35:28;5.70;;;5.10;;
19278;SDS011;9773;47.062;15.446;2023-06-04T01:37:57;4.93;;;4.53;;
19278;SDS011;9773;47.062;15.446;2023-06-04T01:40:23;4.70;;;4.17;;
19278;SDS011;9773;47.062;15.446;2023-06-04T01:42:50;5.97;;;4.77;;
19278;SDS011;9773;47.062;15.446;2023-06-04T01:45:16;5.13;;;4.47;;
19278;SDS011;9773;47.062;15.446;2023-06-04T01:47:42;5.33;;;4.57;;
19278;SDS011;9773;47.062;15.446;2023-06-04T01:50:08;5.13;;;4.70;;
19278;SDS011;9773;47.062;15.446;2023-06-04T01:52:38;5.73;;;5.23;;
19278;SDS011;9773;47.062;15.446;2023-06-04T01:55:06;6.93;;;4.80;;
19278;SDS011;9773;47.062;15.446;2023-06-04T01:57:34;6.60;;;5.03;;
19278;SDS011;9773;47.062;15.446;2023-06-04T02:00:03;5.87;;;5.20;;
19278;SDS011;9773;47.062;15.446;2023-06-04T02:02:33;5.67;;;5.17;;
19278;SDS011;9773;47.062;15.446;2023-06-04T02:05:00;6.40;;;4.67;;
19278;SDS011;9773;47.062;15.446;2023-06-04T02:07:26;5.10;;;4.70;;
19278;SDS011;9773;47.062;15.446;2023-06-04T02:09:52;5.20;;;4.80;;
19278;SDS011;9773;47.062;15.446;2023-06-04T02:12:18;6.80;;;5.10;;
19278;SDS011;9773;47.062;15.446;2023-06-04T02:14:44;5.43;;;4.93;;
19278;SDS011;9773;47.062;15.446;2023-06-04T02:17:12;5.83;;;4.93;;
19278;SDS011;9773;47.062;15.446;2023-06-04T02:19:39;5.90;;;5.10;;
19278;SDS011;9773;47.062;15.446;2023-06-04T02:22:10;5.20;;;4.80;;
19278;SDS011;9773;47.062;15.446;2023-06-04T02:24:41;6.57;;;5.97;;
19278;SDS011;9773;47.062;15.446;2023-06-04T02:27:07;6.20;;;5.47;;
19278;SDS011;9773;47.062;15.446;2023-06-04T02:29:37;5.57;;;5.07;;
19278;SDS011;9773;47.062;15.446;2023-06-04T02:32:05;5.20;;;4.73;;
19278;SDS011;9773;47.062;15.446;2023-06-04T02:34:32;5.50;;;4.57;;
19278;SDS011;9773;47.062;15.446;2023-06-04T02:36:59;4.97;;;4.53;;
19278;SDS011;9773;47.062;15.446;2023-06-04T02:39:25;6.50;;;5.20;;
19278;SDS011;9773;47.062;15.446;2023-06-04T02:41:51;5.50;;;5.00;;
19278;SDS011;9773;47.062;15.446;2023-06-04T02:44:16;5.43;;;4.73;;
19278;SDS011;9773;47.062;15.446;2023-06-04T02:46:43;7.00;;;5.00;;
19278;SDS011;9773;47.062;15.446;2023-06-04T02:49:09;5.50;;;5.00;;
19278;SDS011;9773;47.062;15.446;2023-06-04T02:51:38;4.90;;;4.50;;
19278;SDS011;9773;47.062;15.446;2023-06-04T02:54:05;5.30;;;4.90;;
19278;SDS011;9773;47.062;15.446;2023-06-04T02:56:31;5.57;;;4.97;;
19278;SDS011;9773;47.062;15.446;2023-06-04T02:58:56;5.27;;;4.80;;
19278;SDS011;9773;47.062;15.446;2023-06-04T03:01:22;5.97;;;5.40;;
19278;SDS011;9773;47.062;15.446;2023-06-04T03:03:49;5.30;;;4.80;;
19278;SDS011;9773;47.062;15.446;2023-06-04T03:06:16;4.37;;;4.07;;
19278;SDS011;9773;47.062;15.446;2023-06-04T03:08:43;5.77;;;5.13;;
19278;SDS011;9773;47.062;15.446;2023-06-04T03:11:09;5.93;;;4.87;;
19278;SDS011;9773;47.062;15.446;2023-06-04T03:13:35;5.23;;;4.83;;
19278;SDS011;9773;47.062;15.446;2023-06-04T03:16:01;6.43;;;4.67;;
19278;SDS011;9773;47.062;15.446;2023-06-04T03:18:30;6.63;;;5.13;;
19278;SDS011;9773;47.062;15.446;2023-06-04T03:20:57;5.50;;;5.03;;
19278;SDS011;9773;47.062;15.446;2023-06-04T03:23:24;5.60;;;5.10;;
19278;SDS011;9773;47.062;15.446;2023-06-04T03:25:50;5.50;;;5.00;;
19278;SDS011;9773;47.062;15.446;2023-06-04T03:28:15;5.63;;;4.90;;
19278;SDS011;9773;47.062;15.446;2023-06-04T03:30:41;5.50;;;5.07;;
19278;SDS011;9773;47.062;15.446;2023-06-04T03:33:07;5.77;;;5.00;;
19278;SDS011;9773;47.062;15.446;2023-06-04T03:35:34;6.00;;;4.90;;
19278;SDS011;9773;47.062;15.446;2023-06-04T03:38:00;7.07;;;5.30;;
19278;SDS011;9773;47.062;15.446;2023-06-04T03:40:26;6.80;;;4.80;;
19278;SDS011;9773;47.062;15.446;2023-06-04T03:42:52;6.07;;;5.37;;
19278;SDS011;9773;47.062;15.446;2023-06-04T03:45:17;7.80;;;5.67;;
19278;SDS011;9773;47.062;15.446;2023-06-04T03:47:43;6.13;;;5.13;;
19278;SDS011;9773;47.062;15.446;2023-06-04T03:50:09;7.57;;;5.17;;
19278;SDS011;9773;47.062;15.446;2023-06-04T03:52:35;5.53;;;5.03;;
19278;SDS011;9773;47.062;15.446;2023-06-04T03:55:01;6.00;;;5.40;;
19278;SDS011;9773;47.062;15.446;2023-06-04T03:57:27;5.47;;;4.97;;
19278;SDS011;9773;47.062;15.446;2023-06-04T03:59:53;8.03;;;5.30;;
19278;SDS011;9773;47.062;15.446;2023-06-04T04:02:19;6.23;;;5.63;;
19278;SDS011;9773;47.062;15.446;2023-06-04T04:04:45;7.83;;;5.13;;
19278;SDS011;9773;47.062;15.446;2023-06-04T04:07:10;6.57;;;5.10;;
19278;SDS011;9773;47.062;15.446;2023-06-04T04:09:36;5.50;;;5.00;;
19278;SDS011;9773;47.062;15.446;2023-06-04T04:12:05;6.10;;;5.50;;
19278;SDS011;9773;47.062;15.446;2023-06-04T04:14:31;6.00;;;5.17;;
19278;SDS011;9773;47.062;15.446;2023-06-04T04:16:57;5.10;;;4.63;;
19278;SDS011;9773;47.062;15.446;2023-06-04T04:19:22;5.60;;;5.10;;
19278;SDS011;9773;47.062;15.446;2023-06-04T04:21:48;5.13;;;4.73;;
19278;SDS011;9773;47.062;15.446;2023-06-04T04:24:27;5.50;;;4.73;;
19278;SDS011;9773;47.062;15.446;2023-06-04T04:26:53;5.60;;;5.10;;
19278;SDS011;9773;47.062;15.446;2023-06-04T04:29:20;7.90;;;5.60;;
19278;SDS011;9773;47.062;15.446;2023-06-04T04:31:53;5.80;;;5.20;;
19278;SDS011;9773;47.062;15.446;2023-06-04T04:34:22;6.07;;;5.53;;
19278;SDS011;9773;47.062;15.446;2023-06-04T04:36:50;9.07;;;5.20;;
19278;SDS011;9773;47.062;15.446;2023-06-04T04:39:24;6.80;;;5.00;;
19278;SDS011;9773;47.062;15.446;2023-06-04T04:41:50;5.53;;;5.03;;
19278;SDS011;9773;47.062;15.446;2023-06-04T04:44:16;5.30;;;4.80;;
19278;SDS011;9773;47.062;15.446;2023-06-04T04:46:42;4.90;;;4.50;;
19278;SDS011;9773;47.062;15.446;2023-06-04T04:49:08;5.90;;;5.10;;
19278;SDS011;9773;47.062;15.446;2023-06-04T04:51:34;7.50;;;5.33;;
19278;SDS011;9773;47.062;15.446;2023-06-04T04:54:00;7.87;;;5.20;;
19278;SDS011;9773;47.062;15.446;2023-06-04T04:56:26;5.03;;;4.63;;
19278;SDS011;9773;47.062;15.446;2023-06-04T04:58:53;5.33;;;4.83;;
19278;SDS011;9773;47.062;15.446;2023-06-04T05:01:19;5.13;;;4.73;;
19278;SDS011;9773;47.062;15.446;2023-06-04T05:03:45;6.13;;;5.63;;
19278;SDS011;9773;47.062;15.446;2023-06-04T05:06:10;5.67;;;5.17;;
19278;SDS011;9773;47.062;15.446;2023-06-04T05:08:36;5.47;;;5.03;;
19278;SDS011;9773;47.062;15.446;2023-06-04T05:11:02;5.60;;;5.07;;
19278;SDS011;9773;47.062;15.446;2023-06-04T05:13:28;5.43;;;5.03;;
19278;SDS011;9773;47.062;15.446;2023-06-04T05:15:53;5.03;;;4.63;;
19278;SDS011;9773;47.062;15.446;2023-06-04T05:18:19;5.10;;;4.67;;
19278;SDS011;9773;47.062;15.446;2023-06-04T05:20:57;6.80;;;5.17;;
19278;SDS011;9773;47.062;15.446;2023-06-04T05:23:25;7.00;;;5.30;;
19278;SDS011;9773;47.062;15.446;2023-06-04T05:25:51;6.47;;;5.23;;
19278;SDS011;9773;47.062;15.446;2023-06-04T05:28:17;5.90;;;5.07;;
19278;SDS011;9773;47.062;15.446;2023-06-04T05:30:45;8.23;;;5.07;;
19278;SDS011;9773;47.062;15.446;2023-06-04T05:33:13;5.27;;;4.77;;
19278;SDS011;9773;47.062;15.446;2023-06-04T05:35:48;5.40;;;4.90;;
19278;SDS011;9773;47.062;15.446;2023-06-04T05:38:14;5.63;;;5.23;;
19278;SDS011;9773;47.062;15.446;2023-06-04T05:40:50;6.23;;;5.67;;
19278;SDS011;9773;47.062;15.446;2023-06-04T05:43:17;7.17;;;5.57;;
19278;SDS011;9773;47.062;15.446;2023-06-04T05:45:43;5.23;;;4.83;;
19278;SDS011;9773;47.062;15.446;2023-06-04T05:48:09;6.43;;;5.30;;
19278;SDS011;9773;47.062;15.446;2023-06-04T05:50:35;6.20;;;5.60;;
19278;SDS011;9773;47.062;15.446;2023-06-04T05:53:00;6.40;;;5.40;;
19278;SDS011;9773;47.062;15.446;2023-06-04T05:55:26;6.03;;;5.53;;
19278;SDS011;9773;47.062;15.446;2023-06-04T05:57:53;5.67;;;5.13;;
19278;SDS011;9773;47.062;15.446;2023-06-04T06:00:19;6.20;;;5.70;;
19278;SDS011;9773;47.062;15.446;2023-06-04T06:02:46;5.90;;;4.93;;
19278;SDS011;9773;47.062;15.446;2023-06-04T06:05:15;5.27;;;4.77;;
19278;SDS011;9773;47.062;15.446;2023-06-04T06:07:42;5.70;;;5.20;;
19278;SDS011;9773;47.062;15.446;2023-06-04T06:10:09;5.83;;;5.23;;
19278;SDS011;9773;47.062;15.446;2023-06-04T06:12:35;5.33;;;4.93;;
19278;SDS011;9773;47.062;15.446;2023-06-04T06:15:00;5.73;;;5.23;;
19278;SDS011;9773;47.062;15.446;2023-06-04T06:17:26;5.70;;;5.13;;
19278;SDS011;9773;47.062;15.446;2023-06-04T06:19:53;7.33;;;5.67;;
19278;SDS011;9773;47.062;15.446;2023-06-04T06:22:21;5.47;;;5.00;;
19278;SDS011;9773;47.062;15.446;2023-06-04T06:24:47;6.43;;;5.30;;
19278;SDS011;9773;47.062;15.446;2023-06-04T06:27:16;5.60;;;4.93;;
19278;SDS011;9773;47.062;15.446;2023-06-04T06:29:42;5.53;;;4.93;;
19278;SDS011;9773;47.062;15.446;2023-06-04T06:32:08;6.33;;;4.90;;
19278;SDS011;9773;47.062;15.446;2023-06-04T06:34:35;5.80;;;5.10;;
19278;SDS011;9773;47.062;15.446;2023-06-04T06:37:02;5.50;;;5.00;;
19278;SDS011;9773;47.062;15.446;2023-06-04T06:39:28;5.87;;;5.23;;
19278;SDS011;9773;47.062;15.446;2023-06-04T06:41:53;5.47;;;4.97;;
19278;SDS011;9773;47.062;15.446;2023-06-04T06:44:19;5.27;;;4.87;;
19278;SDS011;9773;47.062;15.446;2023-06-04T06:46:45;5.87;;;5.27;;
19278;SDS011;9773;47.062;15.446;2023-06-04T06:49:13;5.37;;;4.53;;
19278;SDS011;9773;47.062;15.446;2023-06-04T06:51:40;5.90;;;4.90;;
19278;SDS011;9773;47.062;15.446;2023-06-04T06:54:08;5.70;;;4.60;;
19278;SDS011;9773;47.062;15.446;2023-06-04T06:56:34;5.23;;;4.83;;
19278;SDS011;9773;47.062;15.446;2023-06-04T06:59:00;5.63;;;4.83;;
19278;SDS011;9773;47.062;15.446;2023-06-04T07:01:25;5.63;;;5.13;;
19278;SDS011;9773;47.062;15.446;2023-06-04T07:03:51;5.90;;;5.30;;
19278;SDS011;9773;47.062;15.446;2023-06-04T07:06:17;7.83;;;4.93;;
19278;SDS011;9773;47.062;15.446;2023-06-04T07:08:43;6.13;;;5.10;;
19278;SDS011;9773;47.062;15.446;2023-06-04T07:11:08;5.90;;;5.00;;
19278;SDS011;9773;47.062;15.446;2023-06-04T07:13:38;5.67;;;5.10;;
19278;SDS011;9773;47.062;15.446;2023-06-04T07:16:04;5.07;;;4.57;;
19278;SDS011;9773;47.062;15.446;2023-06-04T07:18:30;5.97;;;5.33;;
19278;SDS011;9773;47.062;15.446;2023-06-04T07:20:56;5.27;;;4.70;;
19278;SDS011;9773;47.062;15.446;2023-06-04T07:23:21;5.10;;;4.60;;
19278;SDS011;9773;47.062;15.446;2023-06-04T07:25:47;4.97;;;4.60;;
19278;SDS011;9773;47.062;15.446;2023-06-04T07:28:13;4.67;;;4.27;;
19278;SDS011;9773;47.062;15.446;2023-06-04T07:30:39;4.60;;;4.30;;
19278;SDS011;9773;47.062;15.446;2023-06-04T07:33:04;4.83;;;4.33;;
19278;SDS011;9773;47.062;15.446;2023-06-04T07:35:31;4.33;;;4.03;;
19278;SDS011;9773;47.062;15.446;2023-06-04T07:37:57;5.10;;;4.60;;
19278;SDS011;9773;47.062;15.446;2023-06-04T07:40:23;4.50;;;4.10;;
19278;SDS011;9773;47.062;15.446;2023-06-04T07:42:48;5.50;;;4.30;;
19278;SDS011;9773;47.062;15.446;2023-06-04T07:45:14;5.93;;;5.33;;
19278;SDS011;9773;47.062;15.446;2023-06-04T07:47:40;4.63;;;4.23;;
19278;SDS011;9773;47.062;15.446;2023-06-04T07:50:07;4.60;;;4.20;;
19278;SDS011;9773;47.062;15.446;2023-06-04T07:52:34;6.73;;;4.77;;
19278;SDS011;9773;47.062;15.446;2023-06-04T07:55:00;5.93;;;3.90;;
19278;SDS011;9773;47.062;15.446;2023-06-04T07:57:26;4.73;;;4.27;;
19278;SDS011;9773;47.062;15.446;2023-06-04T07:59:52;4.60;;;4.30;;
19278;SDS011;9773;47.062;15.446;2023-06-04T08:02:18;4.63;;;4.23;;
19278;SDS011;9773;47.062;15.446;2023-06-04T08:04:44;4.87;;;4.33;;
19278;SDS011;9773;47.062;15.446;2023-06-04T08:07:11;4.23;;;3.83;;
19278;SDS011;9773;47.062;15.446;2023-06-04T08:09:37;4.30;;;3.90;;
19278;SDS011;9773;47.062;15.446;2023-06-04T08:12:03;4.37;;;4.07;;
19278;SDS011;9773;47.062;15.446;2023-06-04T08:14:29;4.73;;;4.33;;
19278;SDS011;9773;47.062;15.446;2023-06-04T08:16:56;4.57;;;4.13;;
19278;SDS011;9773;47.062;15.446;2023-06-04T08:19:23;4.40;;;4.00;;
19278;SDS011;9773;47.062;15.446;2023-06-04T08:21:49;4.70;;;4.10;;
19278;SDS011;9773;47.062;15.446;2023-06-04T08:24:15;3.77;;;3.47;;
19278;SDS011;9773;47.062;15.446;2023-06-04T08:26:41;4.30;;;3.95;;
19278;SDS011;9773;47.062;15.446;2023-06-04T08:29:07;6.63;;;3.77;;
19278;SDS011;9773;47.062;15.446;2023-06-04T08:31:33;4.77;;;4.00;;
19278;SDS011;9773;47.062;15.446;2023-06-04T08:33:59;5.00;;;4.60;;
19278;SDS011;9773;47.062;15.446;2023-06-04T08:36:25;4.10;;;3.70;;
19278;SDS011;9773;47.062;15.446;2023-06-04T08:38:52;5.35;;;4.85;;
19278;SDS011;9773;47.062;15.446;2023-06-04T08:41:28;4.20;;;3.87;;
19278;SDS011;9773;47.062;15.446;2023-06-04T08:43:55;4.73;;;4.33;;
19278;SDS011;9773;47.062;15.446;2023-06-04T08:46:22;5.03;;;4.55;;
19278;SDS011;9773;47.062;15.446;2023-06-04T08:48:49;4.60;;;4.20;;
19278;SDS011;9773;47.062;15.446;2023-06-04T08:51:15;4.80;;;4.32;;
19278;SDS011;9773;47.062;15.446;2023-06-04T08:53:42;4.70;;;4.27;;
19278;SDS011;9773;47.062;15.446;2023-06-04T08:56:09;4.53;;;4.13;;
19278;SDS011;9773;47.062;15.446;2023-06-04T08:58:35;4.63;;;4.13;;
19278;SDS011;9773;47.062;15.446;2023-06-04T09:01:05;5.87;;;4.27;;
19278;SDS011;9773;47.062;15.446;2023-06-04T09:03:31;4.80;;;4.50;;
19278;SDS011;9773;47.062;15.446;2023-06-04T09:05:58;5.50;;;5.00;;
19278;SDS011;9773;47.062;15.446;2023-06-04T09:08:24;5.20;;;4.70;;
19278;SDS011;9773;47.062;15.446;2023-06-04T09:10:55;4.87;;;4.47;;
19278;SDS011;9773;47.062;15.446;2023-06-04T09:13:22;6.55;;;5.70;;
19278;SDS011;9773;47.062;15.446;2023-06-04T09:16:01;7.60;;;6.17;;
19278;SDS011;9773;47.062;15.446;2023-06-04T09:18:28;5.47;;;4.50;;
19278;SDS011;9773;47.062;15.446;2023-06-04T09:21:04;4.82;;;4.25;;
19278;SDS011;9773;47.062;15.446;2023-06-04T09:26:09;4.97;;;4.57;;
19278;SDS011;9773;47.062;15.446;2023-06-04T09:28:36;4.70;;;3.95;;
19278;SDS011;9773;47.062;15.446;2023-06-04T09:31:09;4.60;;;4.13;;
19278;SDS011;9773;47.062;15.446;2023-06-04T09:33:42;3.78;;;3.47;;
19278;SDS011;9773;47.062;15.446;2023-06-04T09:36:09;4.95;;;4.32;;
19278;SDS011;9773;47.062;15.446;2023-06-04T09:38:35;4.68;;;4.28;;
19278;SDS011;9773;47.062;15.446;2023-06-04T09:41:02;4.45;;;4.15;;
19278;SDS011;9773;47.062;15.446;2023-06-04T09:43:32;4.30;;;3.90;;
19278;SDS011;9773;47.062;15.446;2023-06-04T09:46:10;4.45;;;4.15;;
19278;SDS011;9773;47.062;15.446;2023-06-04T09:48:39;4.55;;;4.20;;
19278;SDS011;9773;47.062;15.446;2023-06-04T09:51:12;4.15;;;3.85;;
19278;SDS011;9773;47.062;15.446;2023-06-04T09:53:43;5.30;;;3.95;;
19278;SDS011;9773;47.062;15.446;2023-06-04T09:56:22;5.22;;;4.10;;
19278;SDS011;9773;47.062;15.446;2023-06-04T09:58:48;4.20;;;3.85;;
19278;SDS011;9773;47.062;15.446;2023-06-04T10:01:15;5.28;;;4.07;;
19278;SDS011;9773;47.062;15.446;2023-06-04T10:03:42;4.75;;;4.13;;
19278;SDS011;9773;47.062;15.446;2023-06-04T10:06:14;5.90;;;4.10;;
19278;SDS011;9773;47.062;15.446;2023-06-04T10:08:43;4.55;;;4.15;;
19278;SDS011;9773;47.062;15.446;2023-06-04T10:11:10;4.78;;;4.40;;
19278;SDS011;9773;47.062;15.446;2023-06-04T10:13:44;4.43;;;3.90;;
19278;SDS011;9773;47.062;15.446;2023-06-04T10:16:13;5.50;;;4.75;;
19278;SDS011;9773;47.062;15.446;2023-06-04T10:18:40;4.90;;;4.38;;
19278;SDS011;9773;47.062;15.446;2023-06-04T10:21:06;4.93;;;4.43;;
19278;SDS011;9773;47.062;15.446;2023-06-04T10:23:33;4.28;;;3.97;;
19278;SDS011;9773;47.062;15.446;2023-06-04T10:25:59;4.88;;;4.45;;
19278;SDS011;9773;47.062;15.446;2023-06-04T10:28:26;5.90;;;4.65;;
19278;SDS011;9773;47.062;15.446;2023-06-04T10:30:53;4.25;;;3.95;;
19278;SDS011;9773;47.062;15.446;2023-06-04T10:33:19;4.88;;;4.35;;
19278;SDS011;9773;47.062;15.446;2023-06-04T10:35:49;5.25;;;4.75;;
19278;SDS011;9773;47.062;15.446;2023-06-04T10:38:15;5.10;;;4.60;;
19278;SDS011;9773;47.062;15.446;2023-06-04T10:40:43;4.40;;;4.10;;
19278;SDS011;9773;47.062;15.446;2023-06-04T10:43:10;4.50;;;4.20;;
19278;SDS011;9773;47.062;15.446;2023-06-04T10:45:37;4.60;;;4.25;;
19278;SDS011;9773;47.062;15.446;2023-06-04T10:48:03;4.60;;;4.15;;
19278;SDS011;9773;47.062;15.446;2023-06-04T10:50:33;5.18;;;4.35;;
19278;SDS011;9773;47.062;15.446;2023-06-04T10:53:00;5.75;;;4.28;;
19278;SDS011;9773;47.062;15.446;2023-06-04T10:55:30;4.63;;;4.32;;
19278;SDS011;9773;47.062;15.446;2023-06-04T11:00:33;4.78;;;4.20;;
19278;SDS011;9773;47.062;15.446;2023-06-04T11:03:00;4.93;;;4.30;;
19278;SDS011;9773;47.062;15.446;2023-06-04T11:05:33;4.60;;;4.30;;
19278;SDS011;9773;47.062;15.446;2023-06-04T11:08:03;6.90;;;4.40;;
19278;SDS011;9773;47.062;15.446;2023-06-04T11:10:34;5.50;;;5.00;;
19278;SDS011;9773;47.062;15.446;2023-06-04T11:13:02;4.93;;;4.55;;
19278;SDS011;9773;47.062;15.446;2023-06-04T11:18:07;5.80;;;5.30;;
19278;SDS011;9773;47.062;15.446;2023-06-04T11:20:33;5.70;;;5.18;;
19278;SDS011;9773;47.062;15.446;2023-06-04T11:22:59;4.72;;;4.32;;
19278;SDS011;9773;47.062;15.446;2023-06-04T11:25:28;5.18;;;4.68;;
19278;SDS011;9773;47.062;15.446;2023-06-04T11:27:56;7.63;;;5.32;;
19278;SDS011;9773;47.062;15.446;2023-06-04T11:30:23;6.22;;;5.63;;
19278;SDS011;9773;47.062;15.446;2023-06-04T11:32:49;5.88;;;5.40;;
19278;SDS011;9773;47.062;15.446;2023-06-04T11:35:15;5.60;;;5.10;;
19278;SDS011;9773;47.062;15.446;2023-06-04T11:37:54;5.53;;;5.13;;
19278;SDS011;9773;47.062;15.446;2023-06-04T11:40:21;5.35;;;4.95;;
19278;SDS011;9773;47.062;15.446;2023-06-04T11:42:47;4.93;;;4.57;;
19278;SDS011;9773;47.062;15.446;2023-06-04T11:45:14;5.40;;;4.95;;
19278;SDS011;9773;47.062;15.446;2023-06-04T11:47:47;5.57;;;4.88;;
19278;SDS011;9773;47.062;15.446;2023-06-04T11:50:13;4.65;;;4.32;;
19278;SDS011;9773;47.062;15.446;2023-06-04T11:52:40;5.22;;;4.82;;
19278;SDS011;9773;47.062;15.446;2023-06-04T11:55:10;5.00;;;4.60;;
19278;SDS011;9773;47.062;15.446;2023-06-04T11:57:37;4.95;;;4.55;;
19278;SDS011;9773;47.062;15.446;2023-06-04T12:00:04;7.25;;;6.55;;
19278;SDS011;9773;47.062;15.446;2023-06-04T12:02:37;6.38;;;5.00;;
19278;SDS011;9773;47.062;15.446;2023-06-04T12:05:13;5.25;;;4.80;;
19278;SDS011;9773;47.062;15.446;2023-06-04T12:07:40;5.85;;;5.15;;
19278;SDS011;9773;47.062;15.446;2023-06-04T12:10:06;5.15;;;4.65;;
19278;SDS011;9773;47.062;15.446;2023-06-04T12:12:42;5.25;;;4.80;;
19278;SDS011;9773;47.062;15.446;2023-06-04T12:15:08;5.55;;;5.15;;
19278;SDS011;9773;47.062;15.446;2023-06-04T12:17:35;5.40;;;4.97;;
19278;SDS011;9773;47.062;15.446;2023-06-04T12:20:02;6.50;;;5.20;;
19278;SDS011;9773;47.062;15.446;2023-06-04T12:22:30;8.38;;;5.50;;
19278;SDS011;9773;47.062;15.446;2023-06-04T12:24:57;5.20;;;4.70;;
19278;SDS011;9773;47.062;15.446;2023-06-04T12:27:27;5.63;;;5.15;;
19278;SDS011;9773;47.062;15.446;2023-06-04T12:29:56;5.22;;;4.82;;
19278;SDS011;9773;47.062;15.446;2023-06-04T12:32:26;6.32;;;5.82;;
19278;SDS011;9773;47.062;15.446;2023-06-04T12:34:53;5.40;;;5.00;;
19278;SDS011;9773;47.062;15.446;2023-06-04T12:37:19;5.20;;;4.75;;
19278;SDS011;9773;47.062;15.446;2023-06-04T12:39:50;6.55;;;5.90;;
19278;SDS011;9773;47.062;15.446;2023-06-04T12:42:16;5.72;;;5.22;;
19278;SDS011;9773;47.062;15.446;2023-06-04T12:44:43;5.85;;;5.25;;
19278;SDS011;9773;47.062;15.446;2023-06-04T12:47:10;5.15;;;4.78;;
19278;SDS011;9773;47.062;15.446;2023-06-04T12:49:36;5.40;;;4.97;;
19278;SDS011;9773;47.062;15.446;2023-06-04T12:52:02;5.55;;;5.15;;
19278;SDS011;9773;47.062;15.446;2023-06-04T12:54:29;6.13;;;5.37;;
19278;SDS011;9773;47.062;15.446;2023-06-04T12:56:55;5.07;;;4.68;;
19278;SDS011;9773;47.062;15.446;2023-06-04T12:59:24;5.57;;;5.07;;
19278;SDS011;9773;47.062;15.446;2023-06-04T13:01:51;5.32;;;4.93;;
19278;SDS011;9773;47.062;15.446;2023-06-04T13:04:18;5.90;;;5.47;;
19278;SDS011;9773;47.062;15.446;2023-06-04T13:06:45;6.23;;;5.27;;
19278;SDS011;9773;47.062;15.446;2023-06-04T13:09:11;5.90;;;5.47;;
19278;SDS011;9773;47.062;15.446;2023-06-04T13:11:38;8.07;;;5.37;;
19278;SDS011;9773;47.062;15.446;2023-06-04T13:14:05;6.60;;;5.90;;
19278;SDS011;9773;47.062;15.446;2023-06-04T13:16:31;6.90;;;6.30;;
19278;SDS011;9773;47.062;15.446;2023-06-04T13:18:56;5.70;;;5.20;;
19278;SDS011;9773;47.062;15.446;2023-06-04T13:21:22;7.23;;;6.07;;
19278;SDS011;9773;47.062;15.446;2023-06-04T13:23:48;6.57;;;5.97;;
19278;SDS011;9773;47.062;15.446;2023-06-04T13:26:17;5.97;;;5.37;;
19278;SDS011;9773;47.062;15.446;2023-06-04T13:28:46;6.10;;;5.53;;
19278;SDS011;9773;47.062;15.446;2023-06-04T13:31:12;5.80;;;5.30;;
19278;SDS011;9773;47.062;15.446;2023-06-04T13:33:38;6.43;;;5.87;;
19278;SDS011;9773;47.062;15.446;2023-06-04T13:36:05;6.10;;;5.57;;
19278;SDS011;9773;47.062;15.446;2023-06-04T13:38:32;6.83;;;6.20;;
19278;SDS011;9773;47.062;15.446;2023-06-04T13:40:58;8.10;;;6.47;;
19278;SDS011;9773;47.062;15.446;2023-06-04T13:43:24;11.23;;;7.30;;
19278;SDS011;9773;47.062;15.446;2023-06-04T13:45:50;13.57;;;7.63;;
19278;SDS011;9773;47.062;15.446;2023-06-04T13:48:16;7.93;;;7.13;;
19278;SDS011;9773;47.062;15.446;2023-06-04T13:50:43;7.43;;;6.77;;
19278;SDS011;9773;47.062;15.446;2023-06-04T13:53:08;9.77;;;7.57;;
19278;SDS011;9773;47.062;15.446;2023-06-04T13:55:35;8.80;;;7.20;;
19278;SDS011;9773;47.062;15.446;2023-06-04T13:58:01;8.43;;;7.30;;
19278;SDS011;9773;47.062;15.446;2023-06-04T14:00:27;8.57;;;7.43;;
19278;SDS011;9773;47.062;15.446;2023-06-04T14:02:55;8.17;;;7.37;;
19278;SDS011;9773;47.062;15.446;2023-06-04T14:05:21;7.93;;;7.23;;
19278;SDS011;9773;47.062;15.446;2023-06-04T14:07:48;9.40;;;7.80;;
19278;SDS011;9773;47.062;15.446;2023-06-04T14:10:15;8.30;;;7.50;;
19278;SDS011;9773;47.062;15.446;2023-06-04T14:12:41;9.00;;;7.70;;
19278;SDS011;9773;47.062;15.446;2023-06-04T14:15:09;11.43;;;7.93;;
19278;SDS011;9773;47.062;15.446;2023-06-04T14:17:36;8.97;;;8.17;;
19278;SDS011;9773;47.062;15.446;2023-06-04T14:20:02;11.57;;;8.63;;
19278;SDS011;9773;47.062;15.446;2023-06-04T14:22:36;9.73;;;8.40;;
19278;SDS011;9773;47.062;15.446;2023-06-04T14:25:05;9.30;;;8.40;;
19278;SDS011;9773;47.062;15.446;2023-06-04T14:27:32;7.93;;;6.60;;
19278;SDS011;9773;47.062;15.446;2023-06-04T14:30:00;6.77;;;6.07;;
19278;SDS011;9773;47.062;15.446;2023-06-04T14:32:27;7.80;;;5.30;;
19278;SDS011;9773;47.062;15.446;2023-06-04T14:34:52;4.83;;;4.37;;
19278;SDS011;9773;47.062;15.446;2023-06-04T14:37:18;4.67;;;4.37;;
19278;SDS011;9773;47.062;15.446;2023-06-04T14:39:46;5.23;;;4.80;;
19278;SDS011;9773;47.062;15.446;2023-06-04T14:42:12;4.40;;;4.00;;
19278;SDS011;9773;47.062;15.446;2023-06-04T14:44:38;4.53;;;4.00;;
19278;SDS011;9773;47.062;15.446;2023-06-04T14:47:04;5.17;;;3.30;;
19278;SDS011;9773;47.062;15.446;2023-06-04T14:49:30;3.50;;;3.20;;
19278;SDS011;9773;47.062;15.446;2023-06-04T14:51:56;3.97;;;3.13;;
19278;SDS011;9773;47.062;15.446;2023-06-04T14:54:21;3.13;;;2.70;;
19278;SDS011;9773;47.062;15.446;2023-06-04T14:56:47;2.40;;;2.30;;
19278;SDS011;9773;47.062;15.446;2023-06-04T14:59:13;3.27;;;2.97;;
19278;SDS011;9773;47.062;15.446;2023-06-04T15:01:38;3.93;;;2.97;;